sensor_id;sensor_type;location;lat;lon;timestamp;P1;durP1;ratioP1;P2;durP2;ratioP2
44476;SDS011;30180;44.788;10.366;2023-10-31T00:01:28;2.10;;;1.40;;
44476;SDS011;30180;44.788;10.366;2023-10-31T00:03:57;1.95;;;1.30;;
44476;SDS011;30180;44.788;10.366;2023-10-31T00:06:25;2.83;;;1.30;;
44476;SDS011;30180;44.788;10.366;2023-10-31T00:08:53;2.65;;;1.55;;
44476;SDS011;30180;44.788;10.366;2023-10-31T00:11:24;3.10;;;1.38;;
44476;SDS011;30180;44.788;10.366;2023-10-31T00:13:52;2.40;;;1.42;;
44476;SDS011;30180;44.788;10.366;2023-10-31T00:16:21;3.58;;;1.80;;
44476;SDS011;30180;44.788;10.366;2023-10-31T00:18:50;2.80;;;1.38;;
44476;SDS011;30180;44.788;10.366;2023-10-31T00:21:18;2.38;;;1.40;;
44476;SDS011;30180;44.788;10.366;2023-10-31T00:23:47;2.22;;;1.40;;
44476;SDS011;30180;44.788;10.366;2023-10-31T00:26:16;2.50;;;1.42;;
44476;SDS011;30180;44.788;10.366;2023-10-31T00:28:46;2.00;;;1.40;;
44476;SDS011;30180;44.788;10.366;2023-10-31T00:31:14;3.05;;;1.50;;
44476;SDS011;30180;44.788;10.366;2023-10-31T00:33:42;2.65;;;1.45;;
44476;SDS011;30180;44.788;10.366;2023-10-31T00:36:11;2.67;;;1.63;;
44476;SDS011;30180;44.788;10.366;2023-10-31T00:38:39;2.03;;;1.33;;
44476;SDS011;30180;44.788;10.366;2023-10-31T00:41:07;2.78;;;1.50;;
44476;SDS011;30180;44.788;10.366;2023-10-31T00:43:36;2.50;;;1.50;;
44476;SDS011;30180;44.788;10.366;2023-10-31T00:46:05;2.42;;;1.23;;
44476;SDS011;30180;44.788;10.366;2023-10-31T00:48:34;2.53;;;1.48;;
44476;SDS011;30180;44.788;10.366;2023-10-31T00:51:03;2.72;;;1.50;;
44476;SDS011;30180;44.788;10.366;2023-10-31T00:53:32;2.60;;;1.58;;
44476;SDS011;30180;44.788;10.366;2023-10-31T00:56:01;2.58;;;1.42;;
44476;SDS011;30180;44.788;10.366;2023-10-31T00:58:30;2.83;;;1.50;;
44476;SDS011;30180;44.788;10.366;2023-10-31T01:00:58;2.10;;;1.15;;
44476;SDS011;30180;44.788;10.366;2023-10-31T01:03:28;1.85;;;1.17;;
44476;SDS011;30180;44.788;10.366;2023-10-31T01:05:56;1.87;;;1.13;;
44476;SDS011;30180;44.788;10.366;2023-10-31T01:08:25;1.77;;;1.15;;
44476;SDS011;30180;44.788;10.366;2023-10-31T01:10:53;2.30;;;1.17;;
44476;SDS011;30180;44.788;10.366;2023-10-31T01:13:22;2.60;;;1.52;;
44476;SDS011;30180;44.788;10.366;2023-10-31T01:15:50;2.13;;;1.27;;
44476;SDS011;30180;44.788;10.366;2023-10-31T01:18:19;2.70;;;1.20;;
44476;SDS011;30180;44.788;10.366;2023-10-31T01:20:48;2.65;;;1.40;;
44476;SDS011;30180;44.788;10.366;2023-10-31T01:23:17;2.20;;;1.45;;
44476;SDS011;30180;44.788;10.366;2023-10-31T01:25:45;2.85;;;1.50;;
44476;SDS011;30180;44.788;10.366;2023-10-31T01:28:14;1.85;;;1.13;;
44476;SDS011;30180;44.788;10.366;2023-10-31T01:30:42;1.88;;;1.30;;
44476;SDS011;30180;44.788;10.366;2023-10-31T01:33:11;1.90;;;1.30;;
44476;SDS011;30180;44.788;10.366;2023-10-31T01:35:39;2.22;;;1.23;;
44476;SDS011;30180;44.788;10.366;2023-10-31T01:38:09;1.90;;;1.10;;
44476;SDS011;30180;44.788;10.366;2023-10-31T01:40:37;2.50;;;1.40;;
44476;SDS011;30180;44.788;10.366;2023-10-31T01:43:06;2.65;;;1.38;;
44476;SDS011;30180;44.788;10.366;2023-10-31T01:45:34;1.73;;;1.20;;
44476;SDS011;30180;44.788;10.366;2023-10-31T01:48:02;2.70;;;1.35;;
44476;SDS011;30180;44.788;10.366;2023-10-31T01:50:31;1.70;;;1.10;;
44476;SDS011;30180;44.788;10.366;2023-10-31T01:52:59;2.80;;;1.52;;
44476;SDS011;30180;44.788;10.366;2023-10-31T01:55:29;1.73;;;1.13;;
44476;SDS011;30180;44.788;10.366;2023-10-31T01:57:58;2.53;;;1.40;;
44476;SDS011;30180;44.788;10.366;2023-10-31T02:00:27;2.70;;;1.30;;
44476;SDS011;30180;44.788;10.366;2023-10-31T02:02:56;2.67;;;1.30;;
44476;SDS011;30180;44.788;10.366;2023-10-31T02:05:25;2.25;;;1.25;;
44476;SDS011;30180;44.788;10.366;2023-10-31T02:07:55;1.73;;;1.20;;
44476;SDS011;30180;44.788;10.366;2023-10-31T02:10:23;2.50;;;1.40;;
44476;SDS011;30180;44.788;10.366;2023-10-31T02:12:53;2.53;;;1.30;;
44476;SDS011;30180;44.788;10.366;2023-10-31T02:15:21;1.50;;;1.08;;
44476;SDS011;30180;44.788;10.366;2023-10-31T02:17:50;2.00;;;1.10;;
44476;SDS011;30180;44.788;10.366;2023-10-31T02:20:18;1.75;;;1.27;;
44476;SDS011;30180;44.788;10.366;2023-10-31T02:22:48;2.42;;;1.20;;
44476;SDS011;30180;44.788;10.366;2023-10-31T02:25:16;2.22;;;1.30;;
44476;SDS011;30180;44.788;10.366;2023-10-31T02:27:45;3.05;;;1.50;;
44476;SDS011;30180;44.788;10.366;2023-10-31T02:30:13;1.90;;;1.17;;
44476;SDS011;30180;44.788;10.366;2023-10-31T02:32:42;2.13;;;1.17;;
44476;SDS011;30180;44.788;10.366;2023-10-31T02:35:10;1.67;;;1.15;;
44476;SDS011;30180;44.788;10.366;2023-10-31T02:37:40;2.13;;;1.23;;
44476;SDS011;30180;44.788;10.366;2023-10-31T02:40:10;2.00;;;1.23;;
44476;SDS011;30180;44.788;10.366;2023-10-31T02:42:39;2.42;;;1.30;;
44476;SDS011;30180;44.788;10.366;2023-10-31T02:45:08;2.50;;;1.38;;
44476;SDS011;30180;44.788;10.366;2023-10-31T02:47:36;2.05;;;1.17;;
44476;SDS011;30180;44.788;10.366;2023-10-31T02:50:05;1.65;;;0.98;;
44476;SDS011;30180;44.788;10.366;2023-10-31T02:52:34;2.00;;;1.02;;
44476;SDS011;30180;44.788;10.366;2023-10-31T02:55:03;1.83;;;1.00;;
44476;SDS011;30180;44.788;10.366;2023-10-31T02:57:33;2.28;;;1.17;;
44476;SDS011;30180;44.788;10.366;2023-10-31T03:00:02;1.88;;;1.20;;
44476;SDS011;30180;44.788;10.366;2023-10-31T03:02:31;2.05;;;1.00;;
44476;SDS011;30180;44.788;10.366;2023-10-31T03:04:59;2.10;;;1.10;;
44476;SDS011;30180;44.788;10.366;2023-10-31T03:07:28;1.75;;;1.20;;
44476;SDS011;30180;44.788;10.366;2023-10-31T03:09:56;2.60;;;1.35;;
44476;SDS011;30180;44.788;10.366;2023-10-31T03:12:25;2.40;;;1.17;;
44476;SDS011;30180;44.788;10.366;2023-10-31T03:14:54;1.98;;;1.08;;
44476;SDS011;30180;44.788;10.366;2023-10-31T03:17:23;1.77;;;1.15;;
44476;SDS011;30180;44.788;10.366;2023-10-31T03:19:52;1.55;;;1.10;;
44476;SDS011;30180;44.788;10.366;2023-10-31T03:22:20;1.92;;;1.08;;
44476;SDS011;30180;44.788;10.366;2023-10-31T03:24:49;1.85;;;1.20;;
44476;SDS011;30180;44.788;10.366;2023-10-31T03:27:17;1.63;;;1.08;;
44476;SDS011;30180;44.788;10.366;2023-10-31T03:29:45;1.83;;;1.00;;
44476;SDS011;30180;44.788;10.366;2023-10-31T03:32:15;1.88;;;1.10;;
44476;SDS011;30180;44.788;10.366;2023-10-31T03:34:44;1.92;;;1.00;;
44476;SDS011;30180;44.788;10.366;2023-10-31T03:37:12;2.35;;;1.10;;
44476;SDS011;30180;44.788;10.366;2023-10-31T03:39:40;1.58;;;1.05;;
44476;SDS011;30180;44.788;10.366;2023-10-31T03:42:09;1.52;;;1.00;;
44476;SDS011;30180;44.788;10.366;2023-10-31T03:44:37;2.22;;;1.30;;
44476;SDS011;30180;44.788;10.366;2023-10-31T03:47:06;2.97;;;1.17;;
44476;SDS011;30180;44.788;10.366;2023-10-31T03:49:39;2.08;;;1.20;;
44476;SDS011;30180;44.788;10.366;2023-10-31T03:52:07;1.83;;;1.08;;
44476;SDS011;30180;44.788;10.366;2023-10-31T03:54:36;2.28;;;1.17;;
44476;SDS011;30180;44.788;10.366;2023-10-31T03:57:05;2.35;;;1.20;;
44476;SDS011;30180;44.788;10.366;2023-10-31T03:59:33;2.22;;;1.30;;
44476;SDS011;30180;44.788;10.366;2023-10-31T04:04:32;1.50;;;0.88;;
44476;SDS011;30180;44.788;10.366;2023-10-31T04:07:02;1.70;;;1.02;;
44476;SDS011;30180;44.788;10.366;2023-10-31T04:09:31;1.85;;;0.82;;
44476;SDS011;30180;44.788;10.366;2023-10-31T04:11:59;1.98;;;1.15;;
44476;SDS011;30180;44.788;10.366;2023-10-31T04:14:28;2.97;;;1.10;;
44476;SDS011;30180;44.788;10.366;2023-10-31T04:16:56;1.95;;;1.10;;
44476;SDS011;30180;44.788;10.366;2023-10-31T04:19:24;2.17;;;1.25;;
44476;SDS011;30180;44.788;10.366;2023-10-31T04:21:53;1.77;;;1.08;;
44476;SDS011;30180;44.788;10.366;2023-10-31T04:24:23;0.98;;;0.80;;
44476;SDS011;30180;44.788;10.366;2023-10-31T04:26:51;2.45;;;1.00;;
44476;SDS011;30180;44.788;10.366;2023-10-31T04:29:19;1.33;;;0.90;;
44476;SDS011;30180;44.788;10.366;2023-10-31T04:31:48;2.60;;;1.10;;
44476;SDS011;30180;44.788;10.366;2023-10-31T04:34:16;1.38;;;1.00;;
44476;SDS011;30180;44.788;10.366;2023-10-31T04:36:44;1.98;;;1.20;;
44476;SDS011;30180;44.788;10.366;2023-10-31T04:39:13;1.40;;;1.15;;
44476;SDS011;30180;44.788;10.366;2023-10-31T04:41:43;1.98;;;1.10;;
44476;SDS011;30180;44.788;10.366;2023-10-31T04:44:11;1.42;;;0.98;;
44476;SDS011;30180;44.788;10.366;2023-10-31T04:46:40;1.58;;;0.90;;
44476;SDS011;30180;44.788;10.366;2023-10-31T04:49:09;1.73;;;1.17;;
44476;SDS011;30180;44.788;10.366;2023-10-31T04:51:37;1.58;;;1.00;;
44476;SDS011;30180;44.788;10.366;2023-10-31T04:54:06;1.90;;;1.00;;
44476;SDS011;30180;44.788;10.366;2023-10-31T04:56:34;1.80;;;0.98;;
44476;SDS011;30180;44.788;10.366;2023-10-31T04:59:04;2.03;;;0.98;;
44476;SDS011;30180;44.788;10.366;2023-10-31T05:01:33;1.77;;;1.08;;
44476;SDS011;30180;44.788;10.366;2023-10-31T05:04:01;1.83;;;1.10;;
44476;SDS011;30180;44.788;10.366;2023-10-31T05:06:38;1.05;;;0.88;;
44476;SDS011;30180;44.788;10.366;2023-10-31T05:09:07;1.95;;;1.20;;
44476;SDS011;30180;44.788;10.366;2023-10-31T05:11:37;1.93;;;1.00;;
44476;SDS011;30180;44.788;10.366;2023-10-31T05:14:08;2.17;;;1.05;;
44476;SDS011;30180;44.788;10.366;2023-10-31T05:16:41;1.52;;;0.90;;
44476;SDS011;30180;44.788;10.366;2023-10-31T05:19:09;1.45;;;0.98;;
44476;SDS011;30180;44.788;10.366;2023-10-31T05:21:38;0.95;;;0.75;;
44476;SDS011;30180;44.788;10.366;2023-10-31T05:24:07;1.85;;;1.00;;
44476;SDS011;30180;44.788;10.366;2023-10-31T05:26:36;1.42;;;0.90;;
44476;SDS011;30180;44.788;10.366;2023-10-31T05:29:04;1.15;;;0.88;;
44476;SDS011;30180;44.788;10.366;2023-10-31T05:31:34;1.75;;;0.98;;
44476;SDS011;30180;44.788;10.366;2023-10-31T05:34:03;1.50;;;1.00;;
44476;SDS011;30180;44.788;10.366;2023-10-31T05:36:32;2.50;;;1.20;;
44476;SDS011;30180;44.788;10.366;2023-10-31T05:39:00;2.08;;;1.15;;
44476;SDS011;30180;44.788;10.366;2023-10-31T05:41:28;1.83;;;1.10;;
44476;SDS011;30180;44.788;10.366;2023-10-31T05:43:58;1.95;;;1.00;;
44476;SDS011;30180;44.788;10.366;2023-10-31T05:46:26;1.23;;;0.90;;
44476;SDS011;30180;44.788;10.366;2023-10-31T05:48:56;2.55;;;1.20;;
44476;SDS011;30180;44.788;10.366;2023-10-31T05:51:24;2.50;;;1.00;;
44476;SDS011;30180;44.788;10.366;2023-10-31T05:53:53;1.67;;;0.95;;
44476;SDS011;30180;44.788;10.366;2023-10-31T05:56:21;1.30;;;0.90;;
44476;SDS011;30180;44.788;10.366;2023-10-31T05:58:50;1.45;;;1.02;;
44476;SDS011;30180;44.788;10.366;2023-10-31T06:01:18;1.75;;;0.90;;
44476;SDS011;30180;44.788;10.366;2023-10-31T06:03:46;2.00;;;1.00;;
44476;SDS011;30180;44.788;10.366;2023-10-31T06:06:16;2.15;;;0.98;;
44476;SDS011;30180;44.788;10.366;2023-10-31T06:08:45;1.20;;;1.00;;
44476;SDS011;30180;44.788;10.366;2023-10-31T06:11:13;1.40;;;0.85;;
44476;SDS011;30180;44.788;10.366;2023-10-31T06:13:42;2.22;;;1.08;;
44476;SDS011;30180;44.788;10.366;2023-10-31T06:16:11;1.48;;;0.90;;
44476;SDS011;30180;44.788;10.366;2023-10-31T06:18:39;1.20;;;1.02;;
44476;SDS011;30180;44.788;10.366;2023-10-31T06:21:07;1.52;;;0.95;;
44476;SDS011;30180;44.788;10.366;2023-10-31T06:23:37;1.27;;;0.70;;
44476;SDS011;30180;44.788;10.366;2023-10-31T06:26:06;2.13;;;1.00;;
44476;SDS011;30180;44.788;10.366;2023-10-31T06:28:35;1.63;;;1.00;;
44476;SDS011;30180;44.788;10.366;2023-10-31T06:31:11;1.85;;;0.80;;
44476;SDS011;30180;44.788;10.366;2023-10-31T06:33:39;2.10;;;0.90;;
44476;SDS011;30180;44.788;10.366;2023-10-31T06:36:08;1.50;;;0.90;;
44476;SDS011;30180;44.788;10.366;2023-10-31T06:38:38;1.95;;;0.82;;
44476;SDS011;30180;44.788;10.366;2023-10-31T06:41:06;1.42;;;0.95;;
44476;SDS011;30180;44.788;10.366;2023-10-31T06:43:35;1.55;;;0.90;;
44476;SDS011;30180;44.788;10.366;2023-10-31T06:46:03;1.70;;;0.98;;
44476;SDS011;30180;44.788;10.366;2023-10-31T06:48:33;1.50;;;1.00;;
44476;SDS011;30180;44.788;10.366;2023-10-31T06:51:02;1.58;;;1.10;;
44476;SDS011;30180;44.788;10.366;2023-10-31T06:53:31;1.73;;;1.00;;
44476;SDS011;30180;44.788;10.366;2023-10-31T06:56:01;2.50;;;1.00;;
44476;SDS011;30180;44.788;10.366;2023-10-31T06:58:29;2.88;;;1.00;;
44476;SDS011;30180;44.788;10.366;2023-10-31T07:00:58;1.67;;;1.00;;
44476;SDS011;30180;44.788;10.366;2023-10-31T07:03:27;1.20;;;1.00;;
44476;SDS011;30180;44.788;10.366;2023-10-31T07:05:56;1.00;;;0.85;;
44476;SDS011;30180;44.788;10.366;2023-10-31T07:08:25;0.98;;;0.80;;
44476;SDS011;30180;44.788;10.366;2023-10-31T07:10:56;3.05;;;0.90;;
44476;SDS011;30180;44.788;10.366;2023-10-31T07:13:29;2.20;;;1.00;;
44476;SDS011;30180;44.788;10.366;2023-10-31T07:15:58;1.80;;;0.90;;
44476;SDS011;30180;44.788;10.366;2023-10-31T07:18:26;1.38;;;0.85;;
44476;SDS011;30180;44.788;10.366;2023-10-31T07:20:55;1.70;;;0.85;;
44476;SDS011;30180;44.788;10.366;2023-10-31T07:23:24;2.42;;;0.80;;
44476;SDS011;30180;44.788;10.366;2023-10-31T07:25:52;1.35;;;0.80;;
44476;SDS011;30180;44.788;10.366;2023-10-31T07:28:21;3.65;;;1.10;;
44476;SDS011;30180;44.788;10.366;2023-10-31T07:30:51;1.55;;;0.93;;
44476;SDS011;30180;44.788;10.366;2023-10-31T07:33:20;1.77;;;1.10;;
44476;SDS011;30180;44.788;10.366;2023-10-31T07:35:48;1.00;;;0.80;;
44476;SDS011;30180;44.788;10.366;2023-10-31T07:38:17;2.17;;;0.98;;
44476;SDS011;30180;44.788;10.366;2023-10-31T07:40:45;3.03;;;1.00;;
44476;SDS011;30180;44.788;10.366;2023-10-31T07:43:15;1.38;;;1.00;;
44476;SDS011;30180;44.788;10.366;2023-10-31T07:45:44;1.67;;;0.95;;
44476;SDS011;30180;44.788;10.366;2023-10-31T07:48:14;1.45;;;0.85;;
44476;SDS011;30180;44.788;10.366;2023-10-31T07:50:42;2.72;;;0.73;;
44476;SDS011;30180;44.788;10.366;2023-10-31T07:53:11;1.42;;;0.80;;
44476;SDS011;30180;44.788;10.366;2023-10-31T07:55:39;2.95;;;1.00;;
44476;SDS011;30180;44.788;10.366;2023-10-31T07:58:08;1.48;;;0.60;;
44476;SDS011;30180;44.788;10.366;2023-10-31T08:00:37;2.30;;;0.90;;
44476;SDS011;30180;44.788;10.366;2023-10-31T08:03:06;1.58;;;0.88;;
44476;SDS011;30180;44.788;10.366;2023-10-31T08:05:37;2.70;;;0.95;;
44476;SDS011;30180;44.788;10.366;2023-10-31T08:08:05;2.47;;;1.00;;
44476;SDS011;30180;44.788;10.366;2023-10-31T08:10:34;2.15;;;0.90;;
44476;SDS011;30180;44.788;10.366;2023-10-31T08:13:02;2.20;;;1.00;;
44476;SDS011;30180;44.788;10.366;2023-10-31T08:15:31;1.23;;;0.73;;
44476;SDS011;30180;44.788;10.366;2023-10-31T08:17:59;1.40;;;0.80;;
44476;SDS011;30180;44.788;10.366;2023-10-31T08:20:28;2.95;;;1.00;;
44476;SDS011;30180;44.788;10.366;2023-10-31T08:23:01;2.10;;;0.80;;
44476;SDS011;30180;44.788;10.366;2023-10-31T08:25:30;1.30;;;0.75;;
44476;SDS011;30180;44.788;10.366;2023-10-31T08:27:58;1.45;;;0.75;;
44476;SDS011;30180;44.788;10.366;2023-10-31T08:30:27;1.90;;;1.00;;
44476;SDS011;30180;44.788;10.366;2023-10-31T08:32:57;1.63;;;0.90;;
44476;SDS011;30180;44.788;10.366;2023-10-31T08:35:25;2.92;;;1.08;;
44476;SDS011;30180;44.788;10.366;2023-10-31T08:37:54;2.22;;;0.65;;
44476;SDS011;30180;44.788;10.366;2023-10-31T08:40:25;1.88;;;0.77;;
44476;SDS011;30180;44.788;10.366;2023-10-31T08:42:53;3.22;;;0.98;;
44476;SDS011;30180;44.788;10.366;2023-10-31T08:45:22;1.90;;;1.00;;
44476;SDS011;30180;44.788;10.366;2023-10-31T08:47:51;3.88;;;1.00;;
44476;SDS011;30180;44.788;10.366;2023-10-31T08:50:20;1.65;;;0.75;;
44476;SDS011;30180;44.788;10.366;2023-10-31T08:52:48;1.58;;;0.70;;
44476;SDS011;30180;44.788;10.366;2023-10-31T08:55:17;1.73;;;0.82;;
44476;SDS011;30180;44.788;10.366;2023-10-31T08:57:48;2.70;;;0.73;;
44476;SDS011;30180;44.788;10.366;2023-10-31T09:00:18;7.13;;;0.70;;
44476;SDS011;30180;44.788;10.366;2023-10-31T09:02:47;4.60;;;1.27;;
44476;SDS011;30180;44.788;10.366;2023-10-31T09:05:15;1.38;;;0.68;;
44476;SDS011;30180;44.788;10.366;2023-10-31T09:07:44;1.92;;;0.90;;
44476;SDS011;30180;44.788;10.366;2023-10-31T09:10:13;2.35;;;0.85;;
44476;SDS011;30180;44.788;10.366;2023-10-31T09:12:41;2.35;;;0.98;;
44476;SDS011;30180;44.788;10.366;2023-10-31T09:15:11;7.07;;;1.10;;
44476;SDS011;30180;44.788;10.366;2023-10-31T09:17:40;4.38;;;0.70;;
44476;SDS011;30180;44.788;10.366;2023-10-31T09:20:09;5.47;;;1.17;;
44476;SDS011;30180;44.788;10.366;2023-10-31T09:22:39;1.87;;;0.83;;
44476;SDS011;30180;44.788;10.366;2023-10-31T09:25:07;5.20;;;1.05;;
44476;SDS011;30180;44.788;10.366;2023-10-31T09:27:37;2.43;;;0.77;;
44476;SDS011;30180;44.788;10.366;2023-10-31T09:30:07;2.92;;;0.90;;
44476;SDS011;30180;44.788;10.366;2023-10-31T09:32:37;2.00;;;0.63;;
44476;SDS011;30180;44.788;10.366;2023-10-31T09:35:06;4.90;;;0.90;;
44476;SDS011;30180;44.788;10.366;2023-10-31T09:37:35;2.80;;;0.60;;
44476;SDS011;30180;44.788;10.366;2023-10-31T09:40:05;5.97;;;0.90;;
44476;SDS011;30180;44.788;10.366;2023-10-31T09:42:35;3.47;;;0.60;;
44476;SDS011;30180;44.788;10.366;2023-10-31T09:45:03;5.65;;;0.77;;
44476;SDS011;30180;44.788;10.366;2023-10-31T09:47:35;7.30;;;0.73;;
44476;SDS011;30180;44.788;10.366;2023-10-31T09:52:36;14.52;;;1.20;;
44476;SDS011;30180;44.788;10.366;2023-10-31T09:55:05;6.07;;;1.17;;
44476;SDS011;30180;44.788;10.366;2023-10-31T09:57:35;7.68;;;0.85;;
44476;SDS011;30180;44.788;10.366;2023-10-31T10:00:04;6.55;;;0.88;;
44476;SDS011;30180;44.788;10.366;2023-10-31T10:02:34;11.13;;;1.07;;
44476;SDS011;30180;44.788;10.366;2023-10-31T10:05:04;6.50;;;0.90;;
44476;SDS011;30180;44.788;10.366;2023-10-31T10:07:33;9.85;;;1.33;;
44476;SDS011;30180;44.788;10.366;2023-10-31T10:10:02;14.45;;;1.30;;
44476;SDS011;30180;44.788;10.366;2023-10-31T10:12:31;10.30;;;1.25;;
44476;SDS011;30180;44.788;10.366;2023-10-31T10:15:00;11.25;;;1.10;;
44476;SDS011;30180;44.788;10.366;2023-10-31T10:17:28;16.38;;;1.88;;
44476;SDS011;30180;44.788;10.366;2023-10-31T10:20:08;18.27;;;1.40;;
44476;SDS011;30180;44.788;10.366;2023-10-31T10:25:07;7.10;;;1.13;;
44476;SDS011;30180;44.788;10.366;2023-10-31T10:27:35;11.05;;;1.10;;
44476;SDS011;30180;44.788;10.366;2023-10-31T10:30:04;4.85;;;0.90;;
44476;SDS011;30180;44.788;10.366;2023-10-31T10:35:03;4.70;;;1.20;;
44476;SDS011;30180;44.788;10.366;2023-10-31T10:37:34;12.27;;;1.27;;
44476;SDS011;30180;44.788;10.366;2023-10-31T10:40:07;8.68;;;1.10;;
44476;SDS011;30180;44.788;10.366;2023-10-31T10:42:40;9.57;;;1.40;;
44476;SDS011;30180;44.788;10.366;2023-10-31T10:45:13;8.88;;;1.83;;
44476;SDS011;30180;44.788;10.366;2023-10-31T10:47:45;14.43;;;1.60;;
44476;SDS011;30180;44.788;10.366;2023-10-31T10:50:15;4.63;;;1.25;;
44476;SDS011;30180;44.788;10.366;2023-10-31T10:52:53;9.65;;;1.20;;
44476;SDS011;30180;44.788;10.366;2023-10-31T10:55:37;6.68;;;1.20;;
44476;SDS011;30180;44.788;10.366;2023-10-31T10:58:11;7.15;;;1.52;;
44476;SDS011;30180;44.788;10.366;2023-10-31T11:00:55;6.63;;;1.60;;
44476;SDS011;30180;44.788;10.366;2023-10-31T11:03:25;10.35;;;1.60;;
44476;SDS011;30180;44.788;10.366;2023-10-31T11:05:55;5.28;;;1.20;;
44476;SDS011;30180;44.788;10.366;2023-10-31T11:08:25;4.97;;;1.40;;
44476;SDS011;30180;44.788;10.366;2023-10-31T11:10:55;5.30;;;1.40;;
44476;SDS011;30180;44.788;10.366;2023-10-31T11:13:24;6.20;;;1.48;;
44476;SDS011;30180;44.788;10.366;2023-10-31T11:15:55;4.68;;;1.10;;
44476;SDS011;30180;44.788;10.366;2023-10-31T11:18:29;7.20;;;1.35;;
44476;SDS011;30180;44.788;10.366;2023-10-31T11:20:58;8.48;;;1.75;;
44476;SDS011;30180;44.788;10.366;2023-10-31T11:23:28;4.43;;;1.17;;
44476;SDS011;30180;44.788;10.366;2023-10-31T11:25:56;4.57;;;1.23;;
44476;SDS011;30180;44.788;10.366;2023-10-31T11:28:25;6.32;;;1.20;;
44476;SDS011;30180;44.788;10.366;2023-10-31T11:30:54;4.65;;;1.20;;
44476;SDS011;30180;44.788;10.366;2023-10-31T11:33:27;6.20;;;1.08;;
44476;SDS011;30180;44.788;10.366;2023-10-31T11:35:59;6.13;;;1.35;;
44476;SDS011;30180;44.788;10.366;2023-10-31T11:38:32;3.63;;;1.00;;
44476;SDS011;30180;44.788;10.366;2023-10-31T11:41:02;3.83;;;1.13;;
44476;SDS011;30180;44.788;10.366;2023-10-31T11:43:36;6.37;;;1.47;;
44476;SDS011;30180;44.788;10.366;2023-10-31T11:46:19;4.70;;;1.17;;
44476;SDS011;30180;44.788;10.366;2023-10-31T11:48:50;6.43;;;1.30;;
44476;SDS011;30180;44.788;10.366;2023-10-31T11:51:19;4.10;;;1.10;;
44476;SDS011;30180;44.788;10.366;2023-10-31T11:53:49;5.03;;;1.20;;
44476;SDS011;30180;44.788;10.366;2023-10-31T11:56:19;4.47;;;1.25;;
44476;SDS011;30180;44.788;10.366;2023-10-31T11:58:55;3.13;;;1.30;;
44476;SDS011;30180;44.788;10.366;2023-10-31T12:01:24;3.08;;;0.90;;
44476;SDS011;30180;44.788;10.366;2023-10-31T12:03:53;4.75;;;1.27;;
44476;SDS011;30180;44.788;10.366;2023-10-31T12:06:21;4.10;;;1.45;;
44476;SDS011;30180;44.788;10.366;2023-10-31T12:08:51;4.43;;;1.20;;
44476;SDS011;30180;44.788;10.366;2023-10-31T12:11:21;9.88;;;1.88;;
44476;SDS011;30180;44.788;10.366;2023-10-31T12:13:51;5.45;;;1.35;;
44476;SDS011;30180;44.788;10.366;2023-10-31T12:16:23;8.57;;;1.08;;
44476;SDS011;30180;44.788;10.366;2023-10-31T12:18:56;3.13;;;1.08;;
44476;SDS011;30180;44.788;10.366;2023-10-31T12:21:35;5.45;;;1.00;;
44476;SDS011;30180;44.788;10.366;2023-10-31T12:24:06;2.17;;;0.88;;
44476;SDS011;30180;44.788;10.366;2023-10-31T12:26:36;4.22;;;1.38;;
44476;SDS011;30180;44.788;10.366;2023-10-31T12:29:11;7.25;;;1.38;;
44476;SDS011;30180;44.788;10.366;2023-10-31T12:31:44;5.35;;;1.35;;
44476;SDS011;30180;44.788;10.366;2023-10-31T12:34:14;5.35;;;1.00;;
44476;SDS011;30180;44.788;10.366;2023-10-31T12:36:44;3.50;;;0.77;;
44476;SDS011;30180;44.788;10.366;2023-10-31T12:39:16;5.80;;;1.02;;
44476;SDS011;30180;44.788;10.366;2023-10-31T12:41:48;4.32;;;1.25;;
44476;SDS011;30180;44.788;10.366;2023-10-31T12:44:17;6.78;;;1.48;;
44476;SDS011;30180;44.788;10.366;2023-10-31T12:46:51;3.97;;;0.98;;
44476;SDS011;30180;44.788;10.366;2023-10-31T12:49:20;4.15;;;0.95;;
44476;SDS011;30180;44.788;10.366;2023-10-31T12:51:56;6.17;;;1.50;;
44476;SDS011;30180;44.788;10.366;2023-10-31T12:54:31;3.50;;;0.93;;
44476;SDS011;30180;44.788;10.366;2023-10-31T12:57:01;4.03;;;1.00;;
44476;SDS011;30180;44.788;10.366;2023-10-31T12:59:31;2.33;;;0.70;;
44476;SDS011;30180;44.788;10.366;2023-10-31T13:02:00;3.75;;;1.05;;
44476;SDS011;30180;44.788;10.366;2023-10-31T13:04:30;2.97;;;0.80;;
44476;SDS011;30180;44.788;10.366;2023-10-31T13:07:01;5.28;;;1.00;;
44476;SDS011;30180;44.788;10.366;2023-10-31T13:09:31;7.18;;;0.90;;
44476;SDS011;30180;44.788;10.366;2023-10-31T13:12:02;2.95;;;0.90;;
44476;SDS011;30180;44.788;10.366;2023-10-31T13:14:31;4.00;;;1.05;;
44476;SDS011;30180;44.788;10.366;2023-10-31T13:17:00;2.00;;;0.80;;
44476;SDS011;30180;44.788;10.366;2023-10-31T13:19:30;3.45;;;1.25;;
44476;SDS011;30180;44.788;10.366;2023-10-31T13:21:58;6.78;;;1.05;;
44476;SDS011;30180;44.788;10.366;2023-10-31T13:24:27;4.03;;;1.10;;
44476;SDS011;30180;44.788;10.366;2023-10-31T13:26:56;3.65;;;1.00;;
44476;SDS011;30180;44.788;10.366;2023-10-31T13:31:54;3.85;;;1.17;;
44476;SDS011;30180;44.788;10.366;2023-10-31T13:34:23;2.00;;;0.82;;
44476;SDS011;30180;44.788;10.366;2023-10-31T13:36:52;4.90;;;1.10;;
44476;SDS011;30180;44.788;10.366;2023-10-31T13:39:21;3.83;;;1.30;;
44476;SDS011;30180;44.788;10.366;2023-10-31T13:41:50;2.45;;;0.68;;
44476;SDS011;30180;44.788;10.366;2023-10-31T13:44:20;2.33;;;0.70;;
44476;SDS011;30180;44.788;10.366;2023-10-31T13:46:49;2.92;;;0.70;;
44476;SDS011;30180;44.788;10.366;2023-10-31T13:49:17;4.25;;;0.93;;
44476;SDS011;30180;44.788;10.366;2023-10-31T13:51:46;5.68;;;1.15;;
44476;SDS011;30180;44.788;10.366;2023-10-31T13:54:15;2.35;;;0.95;;
44476;SDS011;30180;44.788;10.366;2023-10-31T13:56:43;3.92;;;0.95;;
44476;SDS011;30180;44.788;10.366;2023-10-31T13:59:13;2.58;;;0.70;;
44476;SDS011;30180;44.788;10.366;2023-10-31T14:01:43;1.90;;;0.60;;
44476;SDS011;30180;44.788;10.366;2023-10-31T14:04:13;8.68;;;0.82;;
44476;SDS011;30180;44.788;10.366;2023-10-31T14:06:42;3.88;;;0.80;;
44476;SDS011;30180;44.788;10.366;2023-10-31T14:09:11;4.18;;;1.10;;
44476;SDS011;30180;44.788;10.366;2023-10-31T14:11:40;3.35;;;0.70;;
44476;SDS011;30180;44.788;10.366;2023-10-31T14:14:09;6.40;;;1.00;;
44476;SDS011;30180;44.788;10.366;2023-10-31T14:16:40;3.67;;;0.77;;
44476;SDS011;30180;44.788;10.366;2023-10-31T14:19:11;2.45;;;0.65;;
44476;SDS011;30180;44.788;10.366;2023-10-31T14:21:40;2.07;;;0.37;;
44476;SDS011;30180;44.788;10.366;2023-10-31T14:24:10;2.03;;;0.80;;
44476;SDS011;30180;44.788;10.366;2023-10-31T14:26:39;2.88;;;0.70;;
44476;SDS011;30180;44.788;10.366;2023-10-31T14:31:39;5.05;;;0.90;;
44476;SDS011;30180;44.788;10.366;2023-10-31T14:34:09;2.58;;;0.70;;
44476;SDS011;30180;44.788;10.366;2023-10-31T14:36:39;2.08;;;0.43;;
44476;SDS011;30180;44.788;10.366;2023-10-31T14:39:08;2.90;;;0.80;;
44476;SDS011;30180;44.788;10.366;2023-10-31T14:41:38;2.60;;;0.67;;
44476;SDS011;30180;44.788;10.366;2023-10-31T14:44:06;2.95;;;0.80;;
44476;SDS011;30180;44.788;10.366;2023-10-31T14:46:36;4.63;;;0.98;;
44476;SDS011;30180;44.788;10.366;2023-10-31T14:49:04;3.45;;;0.68;;
44476;SDS011;30180;44.788;10.366;2023-10-31T14:51:33;3.47;;;0.80;;
44476;SDS011;30180;44.788;10.366;2023-10-31T14:54:03;3.00;;;1.02;;
44476;SDS011;30180;44.788;10.366;2023-10-31T14:56:32;2.00;;;0.60;;
44476;SDS011;30180;44.788;10.366;2023-10-31T14:59:02;2.20;;;0.70;;
44476;SDS011;30180;44.788;10.366;2023-10-31T15:01:30;5.75;;;1.00;;